sensor_id;sensor_type;location;lat;lon;timestamp;P1;durP1;ratioP1;P2;durP2;ratioP2
7316;SDS011;3699;51.462;6.696;2022-07-06T00:01:36;4.13;;;2.23;;
7316;SDS011;3699;51.462;6.696;2022-07-06T00:04:04;4.03;;;2.37;;
7316;SDS011;3699;51.462;6.696;2022-07-06T00:06:32;3.07;;;2.60;;
7316;SDS011;3699;51.462;6.696;2022-07-06T00:08:59;3.30;;;2.60;;
7316;SDS011;3699;51.462;6.696;2022-07-06T00:11:26;2.90;;;2.50;;
7316;SDS011;3699;51.462;6.696;2022-07-06T00:13:53;2.87;;;2.30;;
7316;SDS011;3699;51.462;6.696;2022-07-06T00:16:21;5.40;;;2.50;;
7316;SDS011;3699;51.462;6.696;2022-07-06T00:18:49;3.17;;;2.07;;
7316;SDS011;3699;51.462;6.696;2022-07-06T00:21:15;2.77;;;2.30;;
7316;SDS011;3699;51.462;6.696;2022-07-06T00:23:44;2.97;;;2.23;;
7316;SDS011;3699;51.462;6.696;2022-07-06T00:26:11;2.87;;;2.67;;
7316;SDS011;3699;51.462;6.696;2022-07-06T00:28:37;2.50;;;2.30;;
7316;SDS011;3699;51.462;6.696;2022-07-06T00:31:04;6.83;;;2.73;;
7316;SDS011;3699;51.462;6.696;2022-07-06T00:33:32;3.07;;;2.60;;
7316;SDS011;3699;51.462;6.696;2022-07-06T00:35:58;2.80;;;2.60;;
7316;SDS011;3699;51.462;6.696;2022-07-06T00:38:25;4.13;;;2.90;;
7316;SDS011;3699;51.462;6.696;2022-07-06T00:40:53;4.90;;;2.93;;
7316;SDS011;3699;51.462;6.696;2022-07-06T00:43:20;3.53;;;3.03;;
7316;SDS011;3699;51.462;6.696;2022-07-06T00:45:47;5.13;;;3.20;;
7316;SDS011;3699;51.462;6.696;2022-07-06T00:48:14;5.20;;;2.90;;
7316;SDS011;3699;51.462;6.696;2022-07-06T00:50:41;6.20;;;3.20;;
7316;SDS011;3699;51.462;6.696;2022-07-06T00:53:09;3.33;;;2.93;;
7316;SDS011;3699;51.462;6.696;2022-07-06T00:55:37;4.53;;;3.27;;
7316;SDS011;3699;51.462;6.696;2022-07-06T00:58:06;4.90;;;3.30;;
7316;SDS011;3699;51.462;6.696;2022-07-06T01:00:35;7.10;;;4.07;;
7316;SDS011;3699;51.462;6.696;2022-07-06T01:03:02;3.90;;;3.50;;
7316;SDS011;3699;51.462;6.696;2022-07-06T01:05:29;6.73;;;4.23;;
7316;SDS011;3699;51.462;6.696;2022-07-06T01:07:56;10.47;;;4.07;;
7316;SDS011;3699;51.462;6.696;2022-07-06T01:10:25;6.10;;;3.57;;
7316;SDS011;3699;51.462;6.696;2022-07-06T01:12:52;4.33;;;3.93;;
7316;SDS011;3699;51.462;6.696;2022-07-06T01:15:21;9.30;;;4.30;;
7316;SDS011;3699;51.462;6.696;2022-07-06T01:17:49;4.67;;;4.20;;
7316;SDS011;3699;51.462;6.696;2022-07-06T01:20:18;5.13;;;4.07;;
7316;SDS011;3699;51.462;6.696;2022-07-06T01:22:47;6.00;;;4.20;;
7316;SDS011;3699;51.462;6.696;2022-07-06T01:25:15;6.43;;;4.07;;
7316;SDS011;3699;51.462;6.696;2022-07-06T01:27:42;7.37;;;4.00;;
7316;SDS011;3699;51.462;6.696;2022-07-06T01:30:10;6.63;;;4.50;;
7316;SDS011;3699;51.462;6.696;2022-07-06T01:32:38;6.10;;;4.43;;
7316;SDS011;3699;51.462;6.696;2022-07-06T01:35:06;7.13;;;4.60;;
7316;SDS011;3699;51.462;6.696;2022-07-06T01:37:36;5.57;;;4.50;;
7316;SDS011;3699;51.462;6.696;2022-07-06T01:40:04;8.33;;;4.53;;
7316;SDS011;3699;51.462;6.696;2022-07-06T01:42:32;5.00;;;3.80;;
7316;SDS011;3699;51.462;6.696;2022-07-06T01:45:02;4.70;;;4.10;;
7316;SDS011;3699;51.462;6.696;2022-07-06T01:47:31;5.20;;;3.70;;
7316;SDS011;3699;51.462;6.696;2022-07-06T01:49:58;4.23;;;3.83;;
7316;SDS011;3699;51.462;6.696;2022-07-06T01:52:25;4.70;;;4.07;;
7316;SDS011;3699;51.462;6.696;2022-07-06T01:54:54;7.17;;;4.30;;
7316;SDS011;3699;51.462;6.696;2022-07-06T01:57:21;4.00;;;3.30;;
7316;SDS011;3699;51.462;6.696;2022-07-06T01:59:48;8.40;;;4.17;;
7316;SDS011;3699;51.462;6.696;2022-07-06T02:02:15;6.60;;;4.50;;
7316;SDS011;3699;51.462;6.696;2022-07-06T02:04:43;11.10;;;4.67;;
7316;SDS011;3699;51.462;6.696;2022-07-06T02:07:10;4.77;;;4.30;;
7316;SDS011;3699;51.462;6.696;2022-07-06T02:09:37;7.13;;;4.63;;
7316;SDS011;3699;51.462;6.696;2022-07-06T02:12:06;8.07;;;4.47;;
7316;SDS011;3699;51.462;6.696;2022-07-06T02:14:33;6.03;;;4.43;;
7316;SDS011;3699;51.462;6.696;2022-07-06T02:16:59;7.23;;;4.37;;
7316;SDS011;3699;51.462;6.696;2022-07-06T02:19:26;8.07;;;4.30;;
7316;SDS011;3699;51.462;6.696;2022-07-06T02:21:53;14.20;;;4.50;;
7316;SDS011;3699;51.462;6.696;2022-07-06T02:24:20;4.17;;;3.73;;
7316;SDS011;3699;51.462;6.696;2022-07-06T02:26:47;5.93;;;4.10;;
7316;SDS011;3699;51.462;6.696;2022-07-06T02:29:15;5.20;;;4.20;;
7316;SDS011;3699;51.462;6.696;2022-07-06T02:31:42;9.07;;;5.33;;
7316;SDS011;3699;51.462;6.696;2022-07-06T02:34:08;4.83;;;4.10;;
7316;SDS011;3699;51.462;6.696;2022-07-06T02:36:35;7.97;;;3.80;;
7316;SDS011;3699;51.462;6.696;2022-07-06T02:39:02;4.57;;;3.93;;
7316;SDS011;3699;51.462;6.696;2022-07-06T02:41:29;4.63;;;4.20;;
7316;SDS011;3699;51.462;6.696;2022-07-06T02:43:56;6.70;;;4.17;;
7316;SDS011;3699;51.462;6.696;2022-07-06T02:46:24;5.63;;;4.07;;
7316;SDS011;3699;51.462;6.696;2022-07-06T02:48:51;7.33;;;4.63;;
7316;SDS011;3699;51.462;6.696;2022-07-06T02:51:18;5.63;;;3.93;;
7316;SDS011;3699;51.462;6.696;2022-07-06T02:53:45;8.80;;;4.60;;
7316;SDS011;3699;51.462;6.696;2022-07-06T02:56:12;6.53;;;4.40;;
7316;SDS011;3699;51.462;6.696;2022-07-06T02:58:38;6.43;;;4.27;;
7316;SDS011;3699;51.462;6.696;2022-07-06T03:01:05;5.33;;;4.40;;
7316;SDS011;3699;51.462;6.696;2022-07-06T03:03:33;7.97;;;4.90;;
7316;SDS011;3699;51.462;6.696;2022-07-06T03:06:00;4.60;;;3.93;;
7316;SDS011;3699;51.462;6.696;2022-07-06T03:08:27;5.60;;;4.57;;
7316;SDS011;3699;51.462;6.696;2022-07-06T03:10:54;7.23;;;5.00;;
7316;SDS011;3699;51.462;6.696;2022-07-06T03:13:21;8.00;;;4.70;;
7316;SDS011;3699;51.462;6.696;2022-07-06T03:15:47;5.17;;;4.67;;
7316;SDS011;3699;51.462;6.696;2022-07-06T03:18:14;7.80;;;4.47;;
7316;SDS011;3699;51.462;6.696;2022-07-06T03:20:42;9.53;;;5.00;;
7316;SDS011;3699;51.462;6.696;2022-07-06T03:23:09;7.70;;;4.77;;
7316;SDS011;3699;51.462;6.696;2022-07-06T03:25:36;9.00;;;4.73;;
7316;SDS011;3699;51.462;6.696;2022-07-06T03:28:03;11.10;;;4.80;;
7316;SDS011;3699;51.462;6.696;2022-07-06T03:30:30;9.60;;;4.63;;
7316;SDS011;3699;51.462;6.696;2022-07-06T03:32:57;5.63;;;4.50;;
7316;SDS011;3699;51.462;6.696;2022-07-06T03:35:24;7.50;;;5.30;;
7316;SDS011;3699;51.462;6.696;2022-07-06T03:37:52;9.57;;;5.70;;
7316;SDS011;3699;51.462;6.696;2022-07-06T03:40:19;5.47;;;4.80;;
7316;SDS011;3699;51.462;6.696;2022-07-06T03:42:46;7.10;;;5.47;;
7316;SDS011;3699;51.462;6.696;2022-07-06T03:45:13;5.90;;;5.23;;
7316;SDS011;3699;51.462;6.696;2022-07-06T03:47:40;5.93;;;4.90;;
7316;SDS011;3699;51.462;6.696;2022-07-06T03:50:08;6.77;;;4.90;;
7316;SDS011;3699;51.462;6.696;2022-07-06T03:52:35;12.43;;;5.30;;
7316;SDS011;3699;51.462;6.696;2022-07-06T03:55:06;5.23;;;4.50;;
7316;SDS011;3699;51.462;6.696;2022-07-06T03:57:34;6.37;;;5.17;;
7316;SDS011;3699;51.462;6.696;2022-07-06T04:00:01;8.83;;;4.90;;
7316;SDS011;3699;51.462;6.696;2022-07-06T04:02:29;8.27;;;4.87;;
7316;SDS011;3699;51.462;6.696;2022-07-06T04:04:55;6.90;;;6.00;;
7316;SDS011;3699;51.462;6.696;2022-07-06T04:07:22;4.93;;;4.27;;
7316;SDS011;3699;51.462;6.696;2022-07-06T04:09:50;5.83;;;4.43;;
7316;SDS011;3699;51.462;6.696;2022-07-06T04:12:18;7.97;;;4.70;;
7316;SDS011;3699;51.462;6.696;2022-07-06T04:14:45;7.40;;;5.00;;
7316;SDS011;3699;51.462;6.696;2022-07-06T04:17:12;8.17;;;4.67;;
7316;SDS011;3699;51.462;6.696;2022-07-06T04:19:56;7.10;;;4.27;;
7316;SDS011;3699;51.462;6.696;2022-07-06T04:22:23;9.27;;;5.10;;
7316;SDS011;3699;51.462;6.696;2022-07-06T04:24:50;6.97;;;5.10;;
7316;SDS011;3699;51.462;6.696;2022-07-06T04:27:16;5.80;;;4.77;;
7316;SDS011;3699;51.462;6.696;2022-07-06T04:29:45;5.60;;;4.57;;
7316;SDS011;3699;51.462;6.696;2022-07-06T04:32:12;6.60;;;4.70;;
7316;SDS011;3699;51.462;6.696;2022-07-06T04:34:38;7.40;;;4.80;;
7316;SDS011;3699;51.462;6.696;2022-07-06T04:37:05;6.40;;;4.90;;
7316;SDS011;3699;51.462;6.696;2022-07-06T04:39:32;6.53;;;4.80;;
7316;SDS011;3699;51.462;6.696;2022-07-06T04:41:59;10.73;;;5.87;;
7316;SDS011;3699;51.462;6.696;2022-07-06T04:44:27;8.17;;;5.33;;
7316;SDS011;3699;51.462;6.696;2022-07-06T04:46:54;6.43;;;4.73;;
7316;SDS011;3699;51.462;6.696;2022-07-06T04:49:20;6.13;;;4.97;;
7316;SDS011;3699;51.462;6.696;2022-07-06T04:51:47;5.57;;;4.63;;
7316;SDS011;3699;51.462;6.696;2022-07-06T04:54:14;7.60;;;4.60;;
7316;SDS011;3699;51.462;6.696;2022-07-06T04:56:41;5.57;;;4.53;;
7316;SDS011;3699;51.462;6.696;2022-07-06T04:59:08;7.33;;;5.23;;
7316;SDS011;3699;51.462;6.696;2022-07-06T05:01:36;5.83;;;4.20;;
7316;SDS011;3699;51.462;6.696;2022-07-06T05:04:03;8.23;;;4.60;;
7316;SDS011;3699;51.462;6.696;2022-07-06T05:06:30;6.20;;;4.63;;
7316;SDS011;3699;51.462;6.696;2022-07-06T05:08:56;8.13;;;4.77;;
7316;SDS011;3699;51.462;6.696;2022-07-06T05:11:24;5.43;;;4.07;;
7316;SDS011;3699;51.462;6.696;2022-07-06T05:13:52;7.20;;;4.70;;
7316;SDS011;3699;51.462;6.696;2022-07-06T05:16:19;6.00;;;4.20;;
7316;SDS011;3699;51.462;6.696;2022-07-06T05:18:48;6.13;;;3.67;;
7316;SDS011;3699;51.462;6.696;2022-07-06T05:21:15;5.07;;;3.67;;
7316;SDS011;3699;51.462;6.696;2022-07-06T05:23:41;6.07;;;3.50;;
7316;SDS011;3699;51.462;6.696;2022-07-06T05:26:08;5.20;;;3.93;;
7316;SDS011;3699;51.462;6.696;2022-07-06T05:28:35;6.20;;;3.67;;
7316;SDS011;3699;51.462;6.696;2022-07-06T05:31:02;5.67;;;3.77;;
7316;SDS011;3699;51.462;6.696;2022-07-06T05:33:29;3.87;;;3.57;;
7316;SDS011;3699;51.462;6.696;2022-07-06T05:35:57;4.93;;;3.53;;
7316;SDS011;3699;51.462;6.696;2022-07-06T05:38:24;6.87;;;4.00;;
7316;SDS011;3699;51.462;6.696;2022-07-06T05:40:51;7.57;;;3.43;;
7316;SDS011;3699;51.462;6.696;2022-07-06T05:43:18;11.17;;;4.07;;
7316;SDS011;3699;51.462;6.696;2022-07-06T05:45:45;5.60;;;3.43;;
7316;SDS011;3699;51.462;6.696;2022-07-06T05:48:11;7.43;;;4.07;;
7316;SDS011;3699;51.462;6.696;2022-07-06T05:50:57;5.63;;;4.00;;
7316;SDS011;3699;51.462;6.696;2022-07-06T05:53:24;3.60;;;3.30;;
7316;SDS011;3699;51.462;6.696;2022-07-06T05:55:51;8.17;;;3.40;;
7316;SDS011;3699;51.462;6.696;2022-07-06T05:58:18;4.97;;;3.03;;
7316;SDS011;3699;51.462;6.696;2022-07-06T06:00:45;5.43;;;2.90;;
7316;SDS011;3699;51.462;6.696;2022-07-06T06:03:12;5.93;;;3.10;;
7316;SDS011;3699;51.462;6.696;2022-07-06T06:05:39;3.47;;;3.13;;
7316;SDS011;3699;51.462;6.696;2022-07-06T06:08:07;4.83;;;3.20;;
7316;SDS011;3699;51.462;6.696;2022-07-06T06:10:34;5.13;;;2.80;;
7316;SDS011;3699;51.462;6.696;2022-07-06T06:13:01;5.73;;;2.80;;
7316;SDS011;3699;51.462;6.696;2022-07-06T06:15:28;3.60;;;2.77;;
7316;SDS011;3699;51.462;6.696;2022-07-06T06:17:55;3.10;;;2.80;;
7316;SDS011;3699;51.462;6.696;2022-07-06T06:20:21;5.07;;;2.90;;
7316;SDS011;3699;51.462;6.696;2022-07-06T06:22:49;4.70;;;2.63;;
7316;SDS011;3699;51.462;6.696;2022-07-06T06:25:19;5.10;;;2.53;;
7316;SDS011;3699;51.462;6.696;2022-07-06T06:27:52;8.93;;;2.67;;
7316;SDS011;3699;51.462;6.696;2022-07-06T06:30:19;3.43;;;2.10;;
7316;SDS011;3699;51.462;6.696;2022-07-06T06:32:46;4.57;;;2.27;;
7316;SDS011;3699;51.462;6.696;2022-07-06T06:35:13;3.67;;;2.73;;
7316;SDS011;3699;51.462;6.696;2022-07-06T06:37:40;3.60;;;2.50;;
7316;SDS011;3699;51.462;6.696;2022-07-06T06:40:08;3.97;;;2.40;;
7316;SDS011;3699;51.462;6.696;2022-07-06T06:42:37;5.37;;;2.20;;
7316;SDS011;3699;51.462;6.696;2022-07-06T06:45:05;5.00;;;2.30;;
7316;SDS011;3699;51.462;6.696;2022-07-06T06:47:32;6.67;;;2.47;;
7316;SDS011;3699;51.462;6.696;2022-07-06T06:49:59;5.10;;;2.30;;
7316;SDS011;3699;51.462;6.696;2022-07-06T06:52:26;2.30;;;2.10;;
7316;SDS011;3699;51.462;6.696;2022-07-06T06:54:53;2.00;;;1.80;;
7316;SDS011;3699;51.462;6.696;2022-07-06T06:57:19;4.77;;;2.10;;
7316;SDS011;3699;51.462;6.696;2022-07-06T06:59:47;4.70;;;1.90;;
7316;SDS011;3699;51.462;6.696;2022-07-06T07:02:14;3.73;;;1.93;;
7316;SDS011;3699;51.462;6.696;2022-07-06T07:04:42;2.43;;;1.90;;
7316;SDS011;3699;51.462;6.696;2022-07-06T07:07:09;3.93;;;2.37;;
7316;SDS011;3699;51.462;6.696;2022-07-06T07:09:36;4.90;;;2.20;;
7316;SDS011;3699;51.462;6.696;2022-07-06T07:12:03;4.40;;;2.10;;
7316;SDS011;3699;51.462;6.696;2022-07-06T07:14:31;3.90;;;1.80;;
7316;SDS011;3699;51.462;6.696;2022-07-06T07:16:59;2.83;;;1.40;;
7316;SDS011;3699;51.462;6.696;2022-07-06T07:19:26;6.30;;;1.60;;
7316;SDS011;3699;51.462;6.696;2022-07-06T07:21:53;3.00;;;1.83;;
7316;SDS011;3699;51.462;6.696;2022-07-06T07:24:19;1.80;;;1.67;;
7316;SDS011;3699;51.462;6.696;2022-07-06T07:26:46;2.40;;;1.40;;
7316;SDS011;3699;51.462;6.696;2022-07-06T07:29:13;4.60;;;2.13;;
7316;SDS011;3699;51.462;6.696;2022-07-06T07:31:40;2.83;;;1.40;;
7316;SDS011;3699;51.462;6.696;2022-07-06T07:34:08;1.97;;;1.60;;
7316;SDS011;3699;51.462;6.696;2022-07-06T07:36:35;1.77;;;1.50;;
7316;SDS011;3699;51.462;6.696;2022-07-06T07:39:02;2.57;;;1.37;;
7316;SDS011;3699;51.462;6.696;2022-07-06T07:41:30;2.47;;;1.60;;
7316;SDS011;3699;51.462;6.696;2022-07-06T07:43:57;4.07;;;1.47;;
7316;SDS011;3699;51.462;6.696;2022-07-06T07:46:24;5.90;;;1.50;;
7316;SDS011;3699;51.462;6.696;2022-07-06T07:48:51;3.23;;;1.43;;
7316;SDS011;3699;51.462;6.696;2022-07-06T07:51:19;1.83;;;1.73;;
7316;SDS011;3699;51.462;6.696;2022-07-06T07:53:47;5.37;;;2.07;;
7316;SDS011;3699;51.462;6.696;2022-07-06T07:56:14;4.00;;;1.47;;
7316;SDS011;3699;51.462;6.696;2022-07-06T07:58:41;2.50;;;1.30;;
7316;SDS011;3699;51.462;6.696;2022-07-06T08:01:08;3.07;;;2.07;;
7316;SDS011;3699;51.462;6.696;2022-07-06T08:03:34;1.63;;;1.50;;
7316;SDS011;3699;51.462;6.696;2022-07-06T08:06:01;2.20;;;1.33;;
7316;SDS011;3699;51.462;6.696;2022-07-06T08:08:30;8.30;;;1.50;;
7316;SDS011;3699;51.462;6.696;2022-07-06T08:10:56;2.87;;;1.50;;
7316;SDS011;3699;51.462;6.696;2022-07-06T08:13:23;4.10;;;1.47;;
7316;SDS011;3699;51.462;6.696;2022-07-06T08:15:50;2.33;;;1.30;;
7316;SDS011;3699;51.462;6.696;2022-07-06T08:18:17;4.63;;;1.50;;
7316;SDS011;3699;51.462;6.696;2022-07-06T08:20:44;2.30;;;1.30;;
7316;SDS011;3699;51.462;6.696;2022-07-06T08:23:10;4.70;;;1.37;;
7316;SDS011;3699;51.462;6.696;2022-07-06T08:25:39;4.40;;;1.40;;
7316;SDS011;3699;51.462;6.696;2022-07-06T08:28:06;4.87;;;2.23;;
7316;SDS011;3699;51.462;6.696;2022-07-06T08:30:34;4.80;;;1.37;;
7316;SDS011;3699;51.462;6.696;2022-07-06T08:33:01;1.37;;;1.27;;
7316;SDS011;3699;51.462;6.696;2022-07-06T08:35:28;45.13;;;6.60;;
7316;SDS011;3699;51.462;6.696;2022-07-06T08:37:56;9.30;;;1.93;;
7316;SDS011;3699;51.462;6.696;2022-07-06T08:40:23;2.80;;;1.20;;
7316;SDS011;3699;51.462;6.696;2022-07-06T08:42:53;2.83;;;1.43;;
7316;SDS011;3699;51.462;6.696;2022-07-06T08:45:20;3.13;;;1.30;;
7316;SDS011;3699;51.462;6.696;2022-07-06T08:47:48;3.37;;;1.40;;
7316;SDS011;3699;51.462;6.696;2022-07-06T08:50:16;2.37;;;1.20;;
7316;SDS011;3699;51.462;6.696;2022-07-06T08:52:45;3.30;;;1.97;;
7316;SDS011;3699;51.462;6.696;2022-07-06T08:55:15;1.67;;;1.10;;
7316;SDS011;3699;51.462;6.696;2022-07-06T08:57:43;1.40;;;1.30;;
7316;SDS011;3699;51.462;6.696;2022-07-06T09:00:14;3.20;;;1.43;;
7316;SDS011;3699;51.462;6.696;2022-07-06T09:02:41;2.37;;;1.10;;
7316;SDS011;3699;51.462;6.696;2022-07-06T09:05:09;3.40;;;1.20;;
7316;SDS011;3699;51.462;6.696;2022-07-06T09:07:41;6.73;;;1.47;;
7316;SDS011;3699;51.462;6.696;2022-07-06T09:10:10;2.10;;;1.10;;
7316;SDS011;3699;51.462;6.696;2022-07-06T09:12:37;5.73;;;1.30;;
7316;SDS011;3699;51.462;6.696;2022-07-06T09:15:05;5.53;;;1.87;;
7316;SDS011;3699;51.462;6.696;2022-07-06T09:17:36;2.00;;;1.30;;
7316;SDS011;3699;51.462;6.696;2022-07-06T09:20:06;7.43;;;1.70;;
7316;SDS011;3699;51.462;6.696;2022-07-06T09:22:34;4.07;;;2.30;;
7316;SDS011;3699;51.462;6.696;2022-07-06T09:25:03;1.30;;;1.20;;
7316;SDS011;3699;51.462;6.696;2022-07-06T09:27:31;10.07;;;1.50;;
7316;SDS011;3699;51.462;6.696;2022-07-06T09:30:02;5.40;;;1.30;;
7316;SDS011;3699;51.462;6.696;2022-07-06T09:32:30;0.87;;;0.87;;
7316;SDS011;3699;51.462;6.696;2022-07-06T09:34:59;2.43;;;1.00;;
7316;SDS011;3699;51.462;6.696;2022-07-06T09:37:28;3.07;;;1.40;;
7316;SDS011;3699;51.462;6.696;2022-07-06T09:39:56;1.17;;;1.10;;
7316;SDS011;3699;51.462;6.696;2022-07-06T09:42:24;0.80;;;0.80;;
7316;SDS011;3699;51.462;6.696;2022-07-06T09:44:55;1.70;;;1.20;;
7316;SDS011;3699;51.462;6.696;2022-07-06T09:47:23;1.10;;;1.00;;
7316;SDS011;3699;51.462;6.696;2022-07-06T09:49:52;1.30;;;1.00;;
7316;SDS011;3699;51.462;6.696;2022-07-06T09:52:23;3.03;;;0.97;;
7316;SDS011;3699;51.462;6.696;2022-07-06T09:54:50;1.60;;;1.10;;
7316;SDS011;3699;51.462;6.696;2022-07-06T09:57:17;2.03;;;0.90;;
7316;SDS011;3699;51.462;6.696;2022-07-06T09:59:43;4.57;;;1.40;;
7316;SDS011;3699;51.462;6.696;2022-07-06T10:02:17;2.23;;;1.30;;
7316;SDS011;3699;51.462;6.696;2022-07-06T10:04:47;2.03;;;1.00;;
7316;SDS011;3699;51.462;6.696;2022-07-06T10:07:15;1.87;;;0.90;;
7316;SDS011;3699;51.462;6.696;2022-07-06T10:09:44;2.93;;;1.07;;
7316;SDS011;3699;51.462;6.696;2022-07-06T10:12:12;1.23;;;1.10;;
7316;SDS011;3699;51.462;6.696;2022-07-06T10:14:42;1.33;;;1.10;;
7316;SDS011;3699;51.462;6.696;2022-07-06T10:17:09;1.97;;;1.07;;
7316;SDS011;3699;51.462;6.696;2022-07-06T10:19:38;0.97;;;0.90;;
7316;SDS011;3699;51.462;6.696;2022-07-06T10:22:06;1.27;;;0.80;;
7316;SDS011;3699;51.462;6.696;2022-07-06T10:24:34;2.57;;;1.10;;
7316;SDS011;3699;51.462;6.696;2022-07-06T10:27:09;1.40;;;1.30;;
7316;SDS011;3699;51.462;6.696;2022-07-06T10:29:38;9.07;;;1.33;;
7316;SDS011;3699;51.462;6.696;2022-07-06T10:32:05;4.53;;;0.93;;
7316;SDS011;3699;51.462;6.696;2022-07-06T10:34:33;1.40;;;1.30;;
7316;SDS011;3699;51.462;6.696;2022-07-06T10:37:01;1.27;;;1.17;;
7316;SDS011;3699;51.462;6.696;2022-07-06T10:39:33;3.30;;;1.73;;
7316;SDS011;3699;51.462;6.696;2022-07-06T10:45:15;1.20;;;1.10;;
7316;SDS011;3699;51.462;6.696;2022-07-06T10:47:46;1.30;;;1.20;;
7316;SDS011;3699;51.462;6.696;2022-07-06T10:50:12;3.00;;;1.83;;
7316;SDS011;3699;51.462;6.696;2022-07-06T10:52:49;4.10;;;1.63;;
7316;SDS011;3699;51.462;6.696;2022-07-06T10:55:30;3.40;;;1.53;;
7316;SDS011;3699;51.462;6.696;2022-07-06T10:58:01;6.73;;;1.97;;
7316;SDS011;3699;51.462;6.696;2022-07-06T11:00:42;1.47;;;1.30;;
7316;SDS011;3699;51.462;6.696;2022-07-06T11:03:29;3.07;;;1.23;;
7316;SDS011;3699;51.462;6.696;2022-07-06T11:05:57;2.57;;;1.20;;
7316;SDS011;3699;51.462;6.696;2022-07-06T11:11:17;2.87;;;1.40;;
7316;SDS011;3699;51.462;6.696;2022-07-06T11:13:59;3.87;;;1.63;;
7316;SDS011;3699;51.462;6.696;2022-07-06T11:16:28;1.43;;;1.10;;
7316;SDS011;3699;51.462;6.696;2022-07-06T11:19:02;2.03;;;1.50;;
7316;SDS011;3699;51.462;6.696;2022-07-06T11:24:24;2.07;;;1.40;;
7316;SDS011;3699;51.462;6.696;2022-07-06T11:26:53;1.77;;;1.30;;
7316;SDS011;3699;51.462;6.696;2022-07-06T11:29:22;1.67;;;1.40;;
7316;SDS011;3699;51.462;6.696;2022-07-06T11:31:51;2.13;;;1.20;;
7316;SDS011;3699;51.462;6.696;2022-07-06T11:34:21;1.80;;;1.20;;
7316;SDS011;3699;51.462;6.696;2022-07-06T11:36:54;4.50;;;1.87;;
7316;SDS011;3699;51.462;6.696;2022-07-06T11:39:21;1.37;;;1.00;;
7316;SDS011;3699;51.462;6.696;2022-07-06T11:41:49;1.57;;;1.30;;
7316;SDS011;3699;51.462;6.696;2022-07-06T11:44:16;0.97;;;0.93;;
7316;SDS011;3699;51.462;6.696;2022-07-06T11:46:45;2.17;;;1.77;;
7316;SDS011;3699;51.462;6.696;2022-07-06T11:49:12;1.80;;;1.20;;
7316;SDS011;3699;51.462;6.696;2022-07-06T11:51:39;1.90;;;1.00;;
7316;SDS011;3699;51.462;6.696;2022-07-06T11:54:08;1.83;;;1.20;;
7316;SDS011;3699;51.462;6.696;2022-07-06T11:56:36;4.43;;;1.30;;
7316;SDS011;3699;51.462;6.696;2022-07-06T11:59:04;2.17;;;1.00;;
7316;SDS011;3699;51.462;6.696;2022-07-06T12:01:31;1.63;;;1.07;;
7316;SDS011;3699;51.462;6.696;2022-07-06T12:03:59;1.47;;;0.97;;
7316;SDS011;3699;51.462;6.696;2022-07-06T12:06:29;2.37;;;1.10;;
7316;SDS011;3699;51.462;6.696;2022-07-06T12:08:57;3.30;;;1.60;;
7316;SDS011;3699;51.462;6.696;2022-07-06T12:11:26;3.37;;;1.30;;
7316;SDS011;3699;51.462;6.696;2022-07-06T12:13:54;1.80;;;1.00;;
7316;SDS011;3699;51.462;6.696;2022-07-06T12:16:28;2.37;;;1.50;;
7316;SDS011;3699;51.462;6.696;2022-07-06T12:18:56;1.30;;;1.10;;
7316;SDS011;3699;51.462;6.696;2022-07-06T12:21:24;3.73;;;1.50;;
7316;SDS011;3699;51.462;6.696;2022-07-06T12:23:52;1.00;;;1.00;;
7316;SDS011;3699;51.462;6.696;2022-07-06T12:26:20;1.37;;;1.20;;
7316;SDS011;3699;51.462;6.696;2022-07-06T12:28:58;1.90;;;1.00;;
7316;SDS011;3699;51.462;6.696;2022-07-06T12:31:33;1.43;;;0.90;;
7316;SDS011;3699;51.462;6.696;2022-07-06T12:34:01;5.53;;;1.40;;
7316;SDS011;3699;51.462;6.696;2022-07-06T12:36:30;2.87;;;1.10;;
7316;SDS011;3699;51.462;6.696;2022-07-06T12:38:57;4.13;;;1.20;;
7316;SDS011;3699;51.462;6.696;2022-07-06T12:41:25;0.83;;;0.83;;
7316;SDS011;3699;51.462;6.696;2022-07-06T12:43:59;2.57;;;1.37;;
7316;SDS011;3699;51.462;6.696;2022-07-06T12:46:27;2.57;;;1.20;;
7316;SDS011;3699;51.462;6.696;2022-07-06T12:48:56;1.20;;;1.10;;
7316;SDS011;3699;51.462;6.696;2022-07-06T12:51:23;1.30;;;1.20;;
7316;SDS011;3699;51.462;6.696;2022-07-06T12:53:52;1.30;;;1.20;;
7316;SDS011;3699;51.462;6.696;2022-07-06T12:56:37;2.53;;;1.37;;
7316;SDS011;3699;51.462;6.696;2022-07-06T12:59:30;4.23;;;1.43;;
7316;SDS011;3699;51.462;6.696;2022-07-06T13:02:00;1.53;;;1.23;;
7316;SDS011;3699;51.462;6.696;2022-07-06T13:04:28;3.20;;;1.77;;
7316;SDS011;3699;51.462;6.696;2022-07-06T13:06:56;1.57;;;1.47;;
7316;SDS011;3699;51.462;6.696;2022-07-06T13:09:25;1.40;;;1.07;;
7316;SDS011;3699;51.462;6.696;2022-07-06T13:11:51;1.17;;;1.10;;
7316;SDS011;3699;51.462;6.696;2022-07-06T13:14:19;1.17;;;1.10;;
7316;SDS011;3699;51.462;6.696;2022-07-06T13:16:46;2.73;;;1.33;;
7316;SDS011;3699;51.462;6.696;2022-07-06T13:19:15;1.83;;;1.37;;
7316;SDS011;3699;51.462;6.696;2022-07-06T13:21:41;1.33;;;1.00;;
7316;SDS011;3699;51.462;6.696;2022-07-06T13:24:09;2.33;;;1.03;;
7316;SDS011;3699;51.462;6.696;2022-07-06T13:26:38;1.37;;;1.10;;
7316;SDS011;3699;51.462;6.696;2022-07-06T13:29:05;2.23;;;1.30;;
7316;SDS011;3699;51.462;6.696;2022-07-06T13:31:32;1.57;;;1.00;;
7316;SDS011;3699;51.462;6.696;2022-07-06T13:33:59;2.60;;;1.10;;
7316;SDS011;3699;51.462;6.696;2022-07-06T13:36:25;1.63;;;1.00;;
7316;SDS011;3699;51.462;6.696;2022-07-06T13:38:52;2.40;;;1.00;;
7316;SDS011;3699;51.462;6.696;2022-07-06T13:41:19;1.90;;;1.50;;
7316;SDS011;3699;51.462;6.696;2022-07-06T13:43:47;1.93;;;1.03;;
7316;SDS011;3699;51.462;6.696;2022-07-06T13:46:14;2.20;;;1.20;;
7316;SDS011;3699;51.462;6.696;2022-07-06T13:48:42;2.40;;;1.10;;
7316;SDS011;3699;51.462;6.696;2022-07-06T13:51:09;1.50;;;1.00;;
7316;SDS011;3699;51.462;6.696;2022-07-06T13:53:36;1.70;;;0.90;;
7316;SDS011;3699;51.462;6.696;2022-07-06T13:56:03;2.03;;;1.07;;
7316;SDS011;3699;51.462;6.696;2022-07-06T13:58:30;2.27;;;1.20;;
7316;SDS011;3699;51.462;6.696;2022-07-06T14:00:59;1.77;;;0.90;;
7316;SDS011;3699;51.462;6.696;2022-07-06T14:03:25;2.07;;;1.10;;
7316;SDS011;3699;51.462;6.696;2022-07-06T14:05:55;4.20;;;1.10;;
7316;SDS011;3699;51.462;6.696;2022-07-06T14:08:23;2.23;;;1.10;;
7316;SDS011;3699;51.462;6.696;2022-07-06T14:13:21;1.40;;;1.30;;
7316;SDS011;3699;51.462;6.696;2022-07-06T14:15:48;4.10;;;1.30;;
7316;SDS011;3699;51.462;6.696;2022-07-06T14:18:17;2.93;;;1.23;;
7316;SDS011;3699;51.462;6.696;2022-07-06T14:20:45;1.27;;;1.17;;
7316;SDS011;3699;51.462;6.696;2022-07-06T14:23:12;1.20;;;1.00;;
7316;SDS011;3699;51.462;6.696;2022-07-06T14:25:40;1.40;;;1.00;;
7316;SDS011;3699;51.462;6.696;2022-07-06T14:28:07;3.60;;;1.67;;
7316;SDS011;3699;51.462;6.696;2022-07-06T14:30:35;2.17;;;1.00;;
7316;SDS011;3699;51.462;6.696;2022-07-06T14:33:03;1.47;;;1.10;;
7316;SDS011;3699;51.462;6.696;2022-07-06T14:35:34;1.07;;;1.00;;
7316;SDS011;3699;51.462;6.696;2022-07-06T14:38:01;1.40;;;1.20;;
7316;SDS011;3699;51.462;6.696;2022-07-06T14:40:28;2.77;;;1.00;;
7316;SDS011;3699;51.462;6.696;2022-07-06T14:42:55;4.63;;;1.40;;
7316;SDS011;3699;51.462;6.696;2022-07-06T14:45:23;2.70;;;1.37;;
7316;SDS011;3699;51.462;6.696;2022-07-06T14:47:50;2.37;;;1.10;;
7316;SDS011;3699;51.462;6.696;2022-07-06T14:50:17;1.80;;;1.00;;
7316;SDS011;3699;51.462;6.696;2022-07-06T14:52:46;1.17;;;1.03;;
7316;SDS011;3699;51.462;6.696;2022-07-06T14:55:12;4.00;;;1.47;;
7316;SDS011;3699;51.462;6.696;2022-07-06T14:57:39;2.00;;;0.97;;
7316;SDS011;3699;51.462;6.696;2022-07-06T15:00:07;3.27;;;1.60;;
7316;SDS011;3699;51.462;6.696;2022-07-06T15:02:35;6.00;;;1.20;;
7316;SDS011;3699;51.462;6.696;2022-07-06T15:05:04;2.37;;;1.23;;
7316;SDS011;3699;51.462;6.696;2022-07-06T15:07:31;2.37;;;1.13;;
7316;SDS011;3699;51.462;6.696;2022-07-06T15:10:00;3.10;;;1.73;;
7316;SDS011;3699;51.462;6.696;2022-07-06T15:12:26;1.37;;;1.27;;
7316;SDS011;3699;51.462;6.696;2022-07-06T15:14:53;4.20;;;1.53;;
7316;SDS011;3699;51.462;6.696;2022-07-06T15:17:20;1.60;;;1.20;;
7316;SDS011;3699;51.462;6.696;2022-07-06T15:19:47;1.87;;;1.27;;
7316;SDS011;3699;51.462;6.696;2022-07-06T15:22:14;2.70;;;1.10;;
7316;SDS011;3699;51.462;6.696;2022-07-06T15:24:41;4.53;;;1.93;;
7316;SDS011;3699;51.462;6.696;2022-07-06T15:27:09;2.60;;;1.43;;
7316;SDS011;3699;51.462;6.696;2022-07-06T15:29:36;4.70;;;1.37;;
7316;SDS011;3699;51.462;6.696;2022-07-06T15:32:03;1.73;;;1.40;;